Keflavikurflugvollur, Iceland
Current Conditions -  °F | °C
As of 6:30 PM on Tuesday 21 Oct 2014 (Local Time) from BIKF Reporting Station
Clear Clear  
Wind Chill: 24°   Ceiling: Unl
Heat Index: 32°   Visibility: 6mi
Dew Point: 27°   Wind: 9mph
Humidity: 80%   Direction: 130°SE
Pressure: 29.59"   Gusts: NA
Location:  63.97°N, 22.6°W
Report Text: BIKF 211830Z 13008KT CAVOK 00/M03 Q1002
Loading
Personal Weather Stations






























Interactive Weather Map
Tropical Storm Tracking
New forecast layout! Learn more

10-Day Weather Forecast

Advertisements
Track Severe Weather on mobile